Time;durP1;ratioP1;P1;durP2;ratioP2;P2;SDS_P1;SDS_P2;PMS_P1;PMS_P2;Temp;Humidity;BMP_temperature;BMP_pressure;BME280_temperature;BME280_humidity;BME280_pressure;Samples;Min_cycle;Max_cycle;Signal;HPM_P1;HPM_P2
2022/05/19 00:01:19;;;;;;;32.97;27.02;;;;;;;19.11;75.68;101650.44;5053693;28;20043;-60
2022/05/19 00:03:44;;;;;;;34.47;27.77;;;;;;;19.06;75.87;101639.47;5053978;28;20112;-60
2022/05/19 00:06:11;;;;;;;33.88;27.77;;;;;;;19.09;75.78;101647.16;5054249;28;20021;-60
2022/05/19 00:08:37;;;;;;;34.65;27.45;;;;;;;19.10;75.71;101643.19;5053976;28;20064;-61
2022/05/19 00:11:06;;;;;;;34.10;26.60;;;;;;;19.07;75.72;101629.06;5053913;28;20039;-61
2022/05/19 00:13:32;;;;;;;35.47;27.50;;;;;;;19.04;76.14;101630.56;5053894;28;20017;-61
2022/05/19 00:15:57;;;;;;;34.67;27.33;;;;;;;19.05;76.20;101617.34;5054031;28;20078;-62
2022/05/19 00:18:23;;;;;;;35.42;28.33;;;;;;;19.04;76.52;101619.34;5057892;28;20533;-62
2022/05/19 00:20:48;;;;;;;32.97;27.15;;;;;;;19.02;76.28;101621.69;5062155;28;20043;-62
2022/05/19 00:23:15;;;;;;;33.20;27.85;;;;;;;18.97;76.66;101614.31;5053013;28;20025;-61
2022/05/19 00:25:40;;;;;;;35.28;28.30;;;;;;;18.95;76.59;101607.41;5053541;28;20021;-61
2022/05/19 00:28:06;;;;;;;34.38;27.40;;;;;;;18.96;76.44;101612.66;5053846;28;20445;-61
2022/05/19 00:30:32;;;;;;;34.88;27.75;;;;;;;18.90;76.73;101616.81;5053515;28;20036;-61
2022/05/19 00:32:58;;;;;;;33.83;28.30;;;;;;;18.88;76.75;101601.53;5053666;28;20057;-60
2022/05/19 00:35:23;;;;;;;33.75;28.00;;;;;;;18.86;76.79;101605.47;5053566;28;20108;-61
2022/05/19 00:37:49;;;;;;;35.30;28.90;;;;;;;18.81;77.11;101594.47;5053425;28;20029;-60
2022/05/19 00:40:17;;;;;;;34.50;28.33;;;;;;;18.70;77.08;101582.88;5052655;28;20032;-61
2022/05/19 00:42:45;;;;;;;32.40;27.83;;;;;;;18.82;77.01;101600.91;5053336;28;20031;-60
2022/05/19 00:45:23;;;;;;;35.33;27.52;;;;;;;18.74;76.94;101582.19;5053464;28;20083;-60
2022/05/19 00:48:03;;;;;;;35.00;28.38;;;;;;;18.77;77.27;101593.53;5053230;28;20025;-61
2022/05/19 00:50:35;;;;;;;35.33;28.88;;;;;;;18.63;77.82;101582.63;5065283;28;20029;-61
2022/05/19 00:53:09;;;;;;;36.17;28.48;;;;;;;18.58;77.97;101577.22;5053187;28;20059;-61
2022/05/19 00:55:42;;;;;;;33.55;28.00;;;;;;;18.58;77.81;101585.63;5052395;28;20039;-61
2022/05/19 00:58:34;;;;;;;34.75;28.38;;;;;;;18.65;77.16;101585.06;5052490;28;20028;-61
2022/05/19 01:01:00;;;;;;;35.50;29.00;;;;;;;18.52;78.42;101581.41;5052378;28;20040;-61
2022/05/19 01:03:31;;;;;;;33.63;26.88;;;;;;;18.51;78.39;101576.94;5052164;28;20036;-61
2022/05/19 01:06:03;;;;;;;35.08;27.60;;;;;;;18.43;78.56;101572.25;5051442;28;20080;-58
2022/05/19 01:08:40;;;;;;;32.40;26.20;;;;;;;18.50;78.18;101589.31;5053271;28;20033;-61
2022/05/19 01:11:07;;;;;;;35.60;28.40;;;;;;;18.43;78.84;101577.84;5052038;28;20210;-60
2022/05/19 01:13:34;;;;;;;34.30;28.60;;;;;;;18.48;78.36;101574.81;5068323;28;20036;-61
2022/05/19 01:16:00;;;;;;;39.03;28.65;;;;;;;18.44;78.93;101571.88;5053108;28;20053;-63
2022/05/19 01:18:28;;;;;;;35.83;27.85;;;;;;;18.38;79.07;101560.06;5070348;28;20028;-61
2022/05/19 01:20:55;;;;;;;35.70;28.13;;;;;;;18.38;79.17;101564.88;5064236;28;20052;-60
2022/05/19 01:23:41;;;;;;;36.78;28.88;;;;;;;18.37;78.83;101557.63;5071674;28;20071;-61
2022/05/19 01:26:28;;;;;;;34.53;28.23;;;;;;;18.19;79.06;101523.31;5072230;28;20107;-61
2022/05/19 01:28:56;;;;;;;35.67;29.45;;;;;;;18.29;79.69;101548.13;5071312;28;20098;-61
2022/05/19 01:31:33;;;;;;;35.60;29.83;;;;;;;18.26;79.45;101540.44;5071586;28;20116;-62
2022/05/19 01:33:59;;;;;;;35.33;29.75;;;;;;;18.20;80.11;101542.59;5072314;28;20028;-61
2022/05/19 01:36:25;;;;;;;35.60;29.08;;;;;;;18.22;79.98;101534.69;5072236;28;20028;-61
2022/05/19 01:38:58;;;;;;;34.85;29.67;;;;;;;18.18;79.99;101530.13;5072339;28;20394;-61
2022/05/19 01:42:00;;;;;;;35.15;29.08;;;;;;;18.23;79.56;101535.50;5073086;28;20085;-60
2022/05/19 01:44:52;;;;;;;35.63;29.42;;;;;;;18.17;80.19;101520.06;5072331;28;20050;-61
2022/05/19 01:47:26;;;;;;;36.30;30.08;;;;;;;18.08;80.64;101514.53;5073127;28;20166;-61
2022/05/19 01:50:22;;;;;;;35.90;28.88;;;;;;;18.09;80.09;101518.97;5064688;28;20490;-61
2022/05/19 01:53:17;;;;;;;34.17;29.45;;;;;;;17.98;80.81;101506.53;5053482;28;20036;-59
2022/05/19 01:55:56;;;;;;;38.70;29.20;;;;;;;18.07;81.28;101524.09;5052805;28;20443;-61
2022/05/19 01:58:21;;;;;;;38.72;30.33;;;;;;;18.03;81.31;101518.34;5051897;28;20045;-61
2022/05/19 02:00:52;;;;;;;37.63;30.47;;;;;;;17.89;81.96;101504.59;5068342;28;20435;-61
2022/05/19 02:03:29;;;;;;;37.80;29.35;;;;;;;17.98;81.47;101524.16;5059894;28;20041;-61
2022/05/19 02:06:01;;;;;;;37.28;31.58;;;;;;;17.95;82.44;101522.00;5068773;28;20099;-61
2022/05/19 02:08:34;;;;;;;36.80;31.08;;;;;;;17.92;82.16;101517.09;5072305;28;20079;-62
2022/05/19 02:11:06;;;;;;;37.63;30.70;;;;;;;17.84;82.36;101507.59;5072374;28;20032;-60
2022/05/19 02:13:33;;;;;;;36.97;30.58;;;;;;;17.91;82.81;101518.25;5072186;28;20448;-60
2022/05/19 02:16:02;;;;;;;36.42;30.60;;;;;;;17.90;82.74;101502.63;5072406;28;20028;-60
2022/05/19 02:18:28;;;;;;;37.28;30.92;;;;;;;17.89;83.09;101515.78;5072448;28;20494;-61
2022/05/19 02:20:57;;;;;;;36.70;30.58;;;;;;;17.87;83.38;101517.28;5072007;28;20036;-61
2022/05/19 02:23:23;;;;;;;39.80;31.20;;;;;;;17.87;83.20;101508.91;5070973;28;20028;-61
2022/05/19 02:25:51;;;;;;;38.08;31.58;;;;;;;17.85;83.41;101502.81;5070787;28;20078;-61
2022/05/19 02:28:23;;;;;;;36.63;29.58;;;;;;;17.89;83.24;101515.00;5071133;28;20080;-61
2022/05/19 02:30:49;;;;;;;36.08;30.85;;;;;;;17.86;83.23;101516.47;5071678;28;20024;-60
2022/05/19 02:33:15;;;;;;;36.72;30.92;;;;;;;17.86;83.39;101512.84;5059084;28;20027;-60
2022/05/19 02:35:41;;;;;;;35.90;29.23;;;;;;;17.89;83.24;101517.78;5067227;28;20020;-60
2022/05/19 02:38:06;;;;;;;37.63;30.27;;;;;;;17.88;83.39;101510.53;5051991;28;20051;-59
2022/05/19 02:40:34;;;;;;;36.50;29.35;;;;;;;17.89;83.35;101517.78;5051969;28;20090;-59
2022/05/19 02:42:59;;;;;;;36.72;30.55;;;;;;;17.84;83.42;101515.16;5051622;28;20033;-60
2022/05/19 02:45:25;;;;;;;36.38;30.60;;;;;;;17.85;83.63;101522.41;5052034;28;20032;-60
2022/05/19 02:47:51;;;;;;;35.50;29.45;;;;;;;17.85;83.29;101522.41;5050636;28;20437;-61
2022/05/19 02:50:18;;;;;;;36.05;29.95;;;;;;;17.86;83.44;101533.25;5051852;28;20068;-61
2022/05/19 02:52:44;;;;;;;35.63;29.40;;;;;;;17.90;83.27;101528.63;5051866;28;20120;-60
2022/05/19 02:55:10;;;;;;;36.03;29.67;;;;;;;17.90;83.34;101534.22;5051696;28;20048;-60
2022/05/19 02:57:36;;;;;;;35.42;29.48;;;;;;;17.90;83.20;101525.84;5051446;28;20032;-60
2022/05/19 03:00:03;;;;;;;34.45;29.40;;;;;;;17.93;82.91;101535.53;5052069;28;20028;-61
2022/05/19 03:02:28;;;;;;;32.85;28.65;;;;;;;17.96;82.93;101536.81;5051679;28;20029;-61
2022/05/19 03:04:53;;;;;;;35.40;28.45;;;;;;;18.00;82.45;101529.41;5053957;28;20376;-60
2022/05/19 03:07:19;;;;;;;34.97;28.50;;;;;;;18.01;82.46;101545.88;5065135;28;20028;-60
2022/05/19 03:09:45;;;;;;;34.80;28.50;;;;;;;18.05;81.65;101543.19;5051838;28;20043;-62
2022/05/19 03:12:11;;;;;;;35.70;28.80;;;;;;;18.07;82.00;101571.69;5051578;28;20341;-60
2022/05/19 03:14:36;;;;;;;34.25;27.05;;;;;;;18.26;81.40;101666.44;5051642;28;20074;-61
2022/05/19 03:17:05;;;;;;;39.85;30.08;;;;;;;18.35;81.59;101653.22;5051793;28;20491;-62
2022/05/19 03:19:31;;;;;;;27.42;21.63;;;;;;;18.49;76.54;101627.72;5052262;28;20090;-61
2022/05/19 03:21:56;;;;;;;30.63;25.02;;;;;;;18.63;77.70;101661.09;5052299;28;20138;-60
2022/05/19 03:24:21;;;;;;;30.63;23.42;;;;;;;18.96;75.16;101679.94;5052100;28;20140;-61
2022/05/19 03:26:46;;;;;;;32.40;23.13;;;;;;;19.03;74.96;101673.78;5052290;28;20437;-60
2022/05/19 03:29:12;;;;;;;29.25;23.48;;;;;;;19.09;74.76;101666.78;5052151;28;20419;-60
2022/05/19 03:31:38;;;;;;;32.22;24.52;;;;;;;19.16;74.68;101674.66;5066425;28;20112;-61
2022/05/19 03:34:04;;;;;;;30.98;23.60;;;;;;;19.18;74.64;101678.75;5052557;28;20440;-60
2022/05/19 03:36:29;;;;;;;30.23;24.27;;;;;;;19.34;74.82;101694.94;5062455;28;20083;-60
2022/05/19 03:38:55;;;;;;;31.73;24.92;;;;;;;19.32;75.17;101681.25;5070520;28;20021;-61
2022/05/19 03:41:21;;;;;;;30.00;24.15;;;;;;;19.36;75.22;101675.78;5054841;28;20071;-61
2022/05/19 03:43:47;;;;;;;31.73;25.27;;;;;;;19.36;75.27;101688.97;5055425;28;20048;-61
2022/05/19 03:46:12;;;;;;;31.95;25.08;;;;;;;19.39;75.28;101691.91;5055044;28;20131;-61
2022/05/19 03:48:38;;;;;;;31.42;25.95;;;;;;;19.39;75.61;101679.88;5055362;28;20135;-60
2022/05/19 03:51:07;;;;;;;31.58;26.92;;;;;;;19.35;76.29;101679.75;5055588;28;20116;-61
2022/05/19 03:53:32;;;;;;;31.95;25.38;;;;;;;19.31;77.31;101684.41;5055778;28;20376;-60
2022/05/19 03:55:57;;;;;;;30.25;25.30;;;;;;;19.28;77.30;101705.56;5070776;28;20033;-59
2022/05/19 03:58:23;;;;;;;33.00;26.42;;;;;;;19.23;77.65;101694.53;5055368;28;20036;-61
2022/05/19 04:00:48;;;;;;;31.45;26.38;;;;;;;19.23;77.61;101693.72;5055210;28;20025;-60
2022/05/19 04:03:13;;;;;;;30.67;26.35;;;;;;;19.16;78.61;101681.09;5069823;28;20025;-59
2022/05/19 04:05:39;;;;;;;32.15;27.23;;;;;;;19.12;79.95;101691.34;5060070;28;20032;-60
2022/05/19 04:08:04;;;;;;;33.30;28.52;;;;;;;19.06;79.99;101687.13;5073569;28;20032;-60
2022/05/19 04:10:30;;;;;;;33.35;29.23;;;;;;;19.01;81.69;101668.53;5074781;28;20179;-59
2022/05/19 04:12:56;;;;;;;31.60;27.27;;;;;;;18.99;80.45;101698.91;5074791;28;20460;-60
2022/05/19 04:15:21;;;;;;;32.65;29.15;;;;;;;18.97;81.87;101694.81;5075134;28;20032;-60
2022/05/19 04:17:46;;;;;;;32.47;27.50;;;;;;;18.93;81.60;101696.66;5073142;28;20431;-60
2022/05/19 04:20:12;;;;;;;33.75;27.23;;;;;;;18.92;81.16;101695.81;5074922;28;20055;-60
2022/05/19 04:22:38;;;;;;;35.28;27.33;;;;;;;18.93;81.11;101688.22;5074585;28;20350;-62
2022/05/19 04:25:05;;;;;;;32.92;28.58;;;;;;;18.93;81.81;101686.25;5074954;28;20364;-60
2022/05/19 04:27:31;;;;;;;31.05;27.70;;;;;;;18.94;81.39;101695.47;5074746;28;20060;-60
2022/05/19 04:29:57;;;;;;;33.70;29.25;;;;;;;18.91;83.64;101699.75;5074540;28;20404;-60
2022/05/19 04:32:22;;;;;;;30.98;27.63;;;;;;;18.90;83.20;101694.47;5075011;28;20483;-61
2022/05/19 04:34:47;;;;;;;32.35;27.60;;;;;;;18.88;83.57;101691.22;5074730;28;20083;-61
2022/05/19 04:37:13;;;;;;;34.40;29.58;;;;;;;18.84;83.32;101686.28;5074462;28;20028;-61
2022/05/19 04:39:38;;;;;;;31.35;27.58;;;;;;;18.82;83.56;101694.22;5074291;28;20086;-60
2022/05/19 04:42:06;;;;;;;31.95;25.63;;;;;;;18.79;82.32;101680.06;5074406;28;20028;-61
2022/05/19 04:44:32;;;;;;;30.85;26.33;;;;;;;18.85;82.01;101689.91;5073258;28;20034;-60
2022/05/19 04:46:57;;;;;;;30.85;25.52;;;;;;;18.87;82.34;101676.38;5073748;28;20394;-60
2022/05/19 04:49:22;;;;;;;28.48;22.92;;;;;;;18.90;80.83;101672.06;5074018;28;20142;-60
2022/05/19 04:51:47;;;;;;;28.77;23.02;;;;;;;18.95;80.96;101683.09;5074161;28;20361;-60
2022/05/19 04:54:13;;;;;;;29.73;22.33;;;;;;;19.03;80.94;101685.00;5074625;28;20079;-60
2022/05/19 04:56:40;;;;;;;29.38;22.85;;;;;;;19.06;79.44;101686.28;5073996;28;20024;-60
2022/05/19 04:59:13;;;;;;;29.88;23.13;;;;;;;19.10;79.35;101687.25;5074287;28;20096;-59
2022/05/19 05:01:38;;;;;;;26.30;22.27;;;;;;;19.11;78.70;101688.91;5074827;28;20033;-61
2022/05/19 05:04:04;;;;;;;27.92;21.45;;;;;;;19.12;78.60;101690.56;5074413;28;20114;-60
2022/05/19 05:06:31;;;;;;;23.77;17.27;;;;;;;19.13;76.90;101690.19;5072505;28;20086;-60
2022/05/19 05:08:56;;;;;;;24.27;17.67;;;;;;;19.13;77.24;101678.97;5074323;28;20044;-61
2022/05/19 05:11:21;;;;;;;24.13;17.33;;;;;;;19.13;76.71;101687.38;5074075;28;20356;-60
2022/05/19 05:13:47;;;;;;;22.58;16.90;;;;;;;19.17;76.34;101682.75;5073631;28;20059;-61
2022/05/19 05:16:12;;;;;;;22.75;15.18;;;;;;;19.18;76.62;101681.56;5073191;28;20036;-60
2022/05/19 05:18:37;;;;;;;22.50;16.48;;;;;;;19.17;76.40;101671.53;5073607;28;20069;-60
2022/05/19 05:21:05;;;;;;;23.67;15.68;;;;;;;19.18;76.04;101675.94;5074249;28;20097;-60
2022/05/19 05:23:30;;;;;;;23.52;15.82;;;;;;;19.21;76.06;101682.03;5068568;28;20024;-60
2022/05/19 05:25:55;;;;;;;25.95;15.80;;;;;;;19.23;76.74;101683.31;5065221;28;20020;-61
2022/05/19 05:28:21;;;;;;;23.45;16.90;;;;;;;19.22;76.89;101672.47;5073960;28;20045;-61
2022/05/19 05:30:49;;;;;;;25.92;17.60;;;;;;;19.16;77.81;101658.66;5074013;28;20043;-60
2022/05/19 05:33:15;;;;;;;24.60;17.17;;;;;;;19.14;77.71;101660.16;5073707;28;20043;-61
2022/05/19 05:35:41;;;;;;;22.58;17.23;;;;;;;19.09;78.29;101649.16;5073563;28;20316;-62
2022/05/19 05:38:07;;;;;;;23.25;17.60;;;;;;;19.05;78.98;101636.97;5073429;28;20058;-61
2022/05/19 05:40:35;;;;;;;23.55;16.50;;;;;;;18.93;79.62;101613.38;5074195;28;20036;-61
2022/05/19 05:43:08;;;;;;;21.63;15.00;;;;;;;18.89;78.62;101622.78;5073998;28;20028;-61
2022/05/19 05:45:34;;;;;;;23.80;16.02;;;;;;;18.85;80.94;101625.44;5071252;28;20051;-62
2022/05/19 05:47:59;;;;;;;22.58;15.50;;;;;;;18.84;81.34;101609.81;5067139;28;20043;-61
2022/05/19 05:50:25;;;;;;;24.67;16.80;;;;;;;18.82;83.31;101607.31;5053504;28;20456;-61
2022/05/19 05:52:50;;;;;;;26.58;18.05;;;;;;;18.84;83.97;101579.78;5053328;28;20032;-60
2022/05/19 05:55:15;;;;;;;25.05;17.52;;;;;;;18.82;83.94;101568.09;5052970;28;20388;-61
2022/05/19 05:57:40;;;;;;;24.58;17.65;;;;;;;18.86;83.41;101571.00;5052731;28;20122;-61
2022/05/19 06:00:09;;;;;;;24.15;17.40;;;;;;;18.86;83.34;101565.41;5053018;28;20025;-61
2022/05/19 06:02:34;;;;;;;23.48;17.33;;;;;;;18.83;83.69;101566.91;5052818;28;20024;-62
2022/05/19 06:04:59;;;;;;;24.30;16.75;;;;;;;18.77;82.66;101585.13;5053729;28;20035;-61
2022/05/19 06:07:27;;;;;;;24.02;16.35;;;;;;;18.71;83.09;101587.31;5052956;28;20036;-62
2022/05/19 06:09:53;;;;;;;23.40;15.63;;;;;;;18.71;82.95;101586.47;5053206;28;20048;-61
2022/05/19 06:12:18;;;;;;;22.02;15.27;;;;;;;18.73;83.48;101575.75;5053110;28;20031;-62
2022/05/19 06:14:44;;;;;;;26.95;16.88;;;;;;;18.72;84.25;101557.28;5053057;28;20044;-61
2022/05/19 06:17:09;;;;;;;21.20;14.38;;;;;;;18.71;83.36;101553.69;5053202;28;20028;-62
2022/05/19 06:19:34;;;;;;;20.55;14.65;;;;;;;18.74;83.01;101562.56;5053630;28;20032;-61
2022/05/19 06:22:03;;;;;;;20.75;13.63;;;;;;;18.73;82.93;101563.75;5053253;28;20021;-62
2022/05/19 06:24:32;;;;;;;21.98;14.10;;;;;;;18.84;83.63;101576.16;5035355;28;20476;-63
2022/05/19 06:26:59;;;;;;;22.08;13.88;;;;;;;18.92;83.96;101571.63;5050978;28;20087;-62
2022/05/19 06:29:24;;;;;;;21.70;14.05;;;;;;;19.06;84.23;101580.56;5067060;28;20132;-62
2022/05/19 06:31:50;;;;;;;21.45;14.38;;;;;;;19.18;83.55;101568.56;5050845;28;20108;-63
2022/05/19 06:34:16;;;;;;;21.27;12.95;;;;;;;19.32;82.85;101559.81;5050895;28;20047;-61
2022/05/19 06:36:42;;;;;;;21.42;13.73;;;;;;;19.44;82.70;101571.06;5067515;28;20279;-63
2022/05/19 06:39:07;;;;;;;20.25;13.02;;;;;;;19.54;82.66;101557.72;5052579;28;20028;-62
2022/05/19 06:44:18;;;;;;;20.55;13.10;;;;;;;19.73;79.08;101557.13;5071159;28;20538;-62
2022/05/19 06:46:45;;;;;;;20.13;13.90;;;;;;;19.85;79.66;101559.09;5071363;28;20114;-62
2022/05/19 06:49:11;;;;;;;21.92;14.52;;;;;;;19.76;79.23;101531.97;5070469;28;20090;-62
2022/05/19 06:51:36;;;;;;;21.20;14.75;;;;;;;19.95;77.43;101573.53;5071332;28;20073;-63
2022/05/19 06:54:02;;;;;;;23.77;15.82;;;;;;;19.98;78.43;101569.19;5070860;28;20112;-62
2022/05/19 06:56:28;;;;;;;20.30;14.82;;;;;;;20.13;79.30;101576.06;5069136;28;20074;-62
2022/05/19 06:58:53;;;;;;;22.38;14.85;;;;;;;20.18;78.47;101564.56;5069449;28;20055;-62
2022/05/19 07:01:21;;;;;;;21.63;15.40;;;;;;;20.23;78.58;101560.69;5067284;28;20036;-62
2022/05/19 07:03:47;;;;;;;22.88;16.40;;;;;;;20.15;78.17;101539.19;5067341;28;20092;-62
2022/05/19 07:06:12;;;;;;;23.40;16.63;;;;;;;20.27;78.17;101545.59;5060056;28;20504;-62
2022/05/19 07:08:38;;;;;;;24.10;17.65;;;;;;;20.31;78.28;101553.31;5050459;28;20495;-62
2022/05/19 07:11:04;;;;;;;25.23;17.45;;;;;;;20.37;78.74;101572.38;5051056;28;20464;-62
2022/05/19 07:13:31;;;;;;;25.55;18.45;;;;;;;20.31;77.65;101559.72;5051190;28;20113;-63
2022/05/19 07:15:56;;;;;;;23.13;17.95;;;;;;;20.33;79.24;101554.59;5066389;28;20039;-62
2022/05/19 07:18:23;;;;;;;26.35;18.63;;;;;;;20.35;78.04;101555.03;5054263;28;20374;-60
2022/05/19 07:20:49;;;;;;;24.50;18.50;;;;;;;20.37;77.93;101540.63;5058166;28;20037;-61
2022/05/19 07:23:20;;;;;;;25.42;19.70;;;;;;;20.39;77.75;101550.38;5056632;28;20021;-61
2022/05/19 07:25:47;;;;;;;25.33;20.27;;;;;;;20.26;77.89;101512.22;5069168;28;20458;-61
2022/05/19 07:28:13;;;;;;;24.42;19.45;;;;;;;20.46;78.50;101521.63;5070613;28;20052;-61
2022/05/19 07:30:41;;;;;;;25.70;20.33;;;;;;;20.46;77.10;101520.81;5069384;28;20044;-60
2022/05/19 07:33:06;;;;;;;24.42;19.73;;;;;;;20.62;77.54;101540.56;5069171;28;20454;-61
2022/05/19 07:35:32;;;;;;;31.90;20.42;;;;;;;20.63;76.97;101523.31;5069292;28;20024;-61
2022/05/19 07:37:58;;;;;;;26.70;20.52;;;;;;;20.53;75.99;101502.19;5068768;28;20024;-61
2022/05/19 07:40:24;;;;;;;25.48;20.13;;;;;;;20.73;75.91;101507.94;5069231;28;20038;-62
2022/05/19 07:42:49;;;;;;;23.83;19.88;;;;;;;20.78;75.86;101507.69;5068511;28;20137;-62
2022/05/19 07:45:15;;;;;;;24.75;19.95;;;;;;;20.99;74.79;101524.31;5071061;28;20021;-61
2022/05/19 07:47:41;;;;;;;26.73;20.08;;;;;;;21.09;74.22;101527.75;5069410;28;20381;-62
2022/05/19 07:50:10;;;;;;;23.75;19.50;;;;;;;21.25;74.22;101542.66;5061092;28;20040;-62
2022/05/19 07:52:36;;;;;;;25.05;19.40;;;;;;;21.38;73.52;101559.44;5069215;28;20111;-62
2022/05/19 07:55:02;;;;;;;26.00;20.40;;;;;;;21.60;73.92;101564.47;5069239;28;20116;-62
2022/05/19 07:57:28;;;;;;;24.45;20.55;;;;;;;21.81;72.51;101568.97;5070499;28;20071;-62
2022/05/19 07:59:53;;;;;;;27.30;22.35;;;;;;;21.87;72.19;101561.06;5070410;28;20440;-62
2022/05/19 08:02:20;;;;;;;29.08;22.10;;;;;;;21.91;71.79;101568.41;5069000;28;20173;-62
2022/05/19 08:04:46;;;;;;;26.10;21.42;;;;;;;21.89;72.59;101553.03;5068773;28;20025;-61
2022/05/19 08:07:11;;;;;;;26.77;22.33;;;;;;;22.09;72.85;101563.16;5052231;28;20078;-62
2022/05/19 08:17:54;;;;;;;26.05;21.50;;;;;;;22.66;68.80;101539.41;5052062;28;20044;-62
2022/05/19 08:20:20;;;;;;;27.63;22.05;;;;;;;22.79;68.37;101540.88;5051787;28;20036;-62
2022/05/19 08:22:46;;;;;;;26.42;21.33;;;;;;;23.01;66.75;101533.59;5053675;28;20033;-62
2022/05/19 08:25:12;;;;;;;27.35;22.45;;;;;;;23.07;65.86;101534.13;5070058;28;20047;-62
2022/05/19 08:27:39;;;;;;;26.10;21.13;;;;;;;23.14;65.78;101527.78;5054789;28;20380;-61
2022/05/19 08:30:05;;;;;;;26.27;18.92;;;;;;;23.31;64.36;101523.69;5070160;28;20032;-62
2022/05/19 08:32:30;;;;;;;24.83;20.17;;;;;;;23.44;63.76;101521.47;5070137;28;20029;-61
2022/05/19 08:34:56;;;;;;;24.60;19.60;;;;;;;23.56;62.79;101531.72;5055729;28;20031;-62
2022/05/19 08:37:21;;;;;;;26.08;20.10;;;;;;;23.65;61.73;101540.75;5073563;28;20025;-61
2022/05/19 08:39:46;;;;;;;24.38;18.80;;;;;;;23.59;60.81;101545.09;5073305;28;20024;-61
2022/05/19 08:42:14;;;;;;;24.10;18.23;;;;;;;23.78;61.46;101556.28;5073389;28;20051;-61
2022/05/19 08:44:55;;;;;;;22.70;17.85;;;;;;;23.75;62.32;101528.00;5073460;28;20098;-61
2022/05/19 08:47:26;;;;;;;25.98;19.00;;;;;;;23.85;60.84;101549.94;5073350;28;20090;-61
2022/05/19 08:50:04;;;;;;;23.40;17.45;;;;;;;24.13;61.39;101545.91;5073232;28;20471;-62
2022/05/19 08:52:38;;;;;;;25.92;17.83;;;;;;;24.24;59.92;101534.72;5073197;28;20035;-62
2022/05/19 08:55:04;;;;;;;24.55;17.13;;;;;;;24.41;59.12;101536.16;5074753;28;20078;-62
2022/05/19 08:57:40;;;;;;;22.05;16.08;;;;;;;24.49;58.75;101537.03;5056419;28;20119;-62
2022/05/19 09:00:27;;;;;;;22.10;15.23;;;;;;;24.48;58.37;101512.78;5073097;28;20036;-62
2022/05/19 09:03:14;;;;;;;21.75;15.38;;;;;;;24.63;57.37;101525.06;5073128;28;20024;-63
2022/05/19 09:05:58;;;;;;;23.73;14.95;;;;;;;24.75;57.21;101517.16;5056597;28;20363;-62
2022/05/19 09:08:45;;;;;;;23.40;14.90;;;;;;;24.92;57.13;101517.75;5072807;28;20032;-62
2022/05/19 09:11:15;;;;;;;22.35;14.45;;;;;;;25.12;54.85;101509.03;5073102;28;20124;-62
2022/05/19 09:13:51;;;;;;;20.85;13.80;;;;;;;25.41;55.40;101517.78;5072746;28;20109;-62
2022/05/19 09:16:28;;;;;;;21.92;14.55;;;;;;;25.57;54.59;101523.16;5074315;28;20051;-62
2022/05/19 09:19:02;;;;;;;21.23;14.75;;;;;;;25.55;53.05;101523.56;5072395;28;20028;-60
2022/05/19 09:21:27;;;;;;;24.05;15.30;;;;;;;25.44;53.38;101500.00;5072914;28;20403;-62
2022/05/19 09:23:53;;;;;;;22.02;13.80;;;;;;;25.66;54.12;101513.09;5073179;28;20108;-62
2022/05/19 09:26:49;;;;;;;21.15;13.32;;;;;;;26.01;54.19;101510.88;5073361;28;20077;-62
2022/05/19 09:29:22;;;;;;;23.23;13.70;;;;;;;26.33;52.90;101513.06;5072443;28;20085;-62
2022/05/19 09:32:13;;;;;;;20.73;13.68;;;;;;;26.66;52.11;101504.63;5073337;28;20055;-62
2022/05/19 09:34:43;;;;;;;20.85;14.90;;;;;;;26.62;49.96;101490.44;5072841;28;20024;-61
2022/05/19 09:37:12;;;;;;;21.17;14.63;;;;;;;26.47;49.59;101483.91;5072374;28;20039;-61
2022/05/19 09:39:51;;;;;;;20.77;13.68;;;;;;;26.59;50.87;101500.56;5071972;28;20036;-61
2022/05/19 09:42:21;;;;;;;20.70;13.90;;;;;;;26.54;49.00;101508.66;5073880;28;20472;-61
2022/05/19 09:44:55;;;;;;;20.92;14.27;;;;;;;26.40;49.66;101498.88;5072260;28;20456;-61
2022/05/19 09:47:28;;;;;;;22.35;13.93;;;;;;;26.34;50.02;101506.16;5071888;28;20035;-61
2022/05/19 09:50:01;;;;;;;21.50;14.43;;;;;;;26.39;50.18;101511.47;5073028;28;20428;-62
2022/05/19 09:52:26;;;;;;;21.38;13.90;;;;;;;26.41;49.15;101496.88;5071103;28;20040;-62
2022/05/19 09:55:01;;;;;;;21.67;13.60;;;;;;;26.38;50.16;101506.19;5058366;28;20037;-62
2022/05/19 09:57:52;;;;;;;19.20;12.63;;;;;;;26.39;50.63;101505.81;5036253;28;20029;-61
2022/05/19 10:00:18;;;;;;;19.15;12.82;;;;;;;26.36;49.84;101500.09;5052440;28;20051;-62
2022/05/19 10:02:46;;;;;;;20.65;12.35;;;;;;;26.41;49.50;101491.22;5052942;28;20024;-61
2022/05/19 10:05:46;;;;;;;20.35;13.10;;;;;;;26.45;50.30;101480.69;5052672;28;20433;-62
2022/05/19 10:08:40;;;;;;;20.73;13.07;;;;;;;26.35;49.06;101470.94;5053638;28;20599;-63
2022/05/19 10:11:12;;;;;;;20.33;12.73;;;;;;;26.49;49.52;101477.88;5055881;28;20052;-62
2022/05/19 10:13:45;;;;;;;21.92;12.60;;;;;;;26.56;49.64;101463.69;5051813;28;20029;-62
2022/05/19 10:16:29;;;;;;;19.10;12.32;;;;;;;26.71;49.86;101462.47;5051542;28;20480;-62
2022/05/19 10:19:25;;;;;;;20.38;11.60;;;;;;;26.80;50.28;101444.28;5051116;28;20025;-61
2022/05/19 10:22:11;;;;;;;21.50;11.88;;;;;;;26.97;48.83;101434.16;5051183;28;20075;-61
2022/05/19 10:25:23;;;;;;;21.02;11.55;;;;;;;27.02;49.18;101428.88;5051112;28;20467;-61
2022/05/19 10:31:06;;;;;;;20.02;11.63;;;;;;;27.35;47.27;101423.16;5051733;28;20051;-61
2022/05/19 10:34:09;;;;;;;18.55;11.27;;;;;;;27.70;47.17;101433.63;5066468;28;20044;-61
2022/05/19 10:36:46;;;;;;;19.50;10.70;;;;;;;28.02;44.18;101429.84;5050732;28;20037;-61
2022/05/19 10:39:36;;;;;;;17.75;10.07;;;;;;;28.33;44.90;101418.72;5062060;28;20027;-60
2022/05/19 10:42:04;;;;;;;21.02;11.02;;;;;;;28.51;42.22;101426.34;5052910;28;20114;-61
2022/05/19 10:45:07;;;;;;;16.95;10.65;;;;;;;28.65;43.29;101431.09;5065301;28;20641;-60
2022/05/19 10:47:57;;;;;;;21.10;10.73;;;;;;;28.79;43.18;101433.06;5049384;28;20021;-61
2022/05/19 10:50:28;;;;;;;18.25;11.18;;;;;;;28.90;41.00;101433.00;5050877;28;20314;-61
2022/05/19 10:53:22;;;;;;;19.27;11.23;;;;;;;29.09;42.19;101426.72;5051369;28;20448;-61
2022/05/19 10:56:16;;;;;;;19.23;10.82;;;;;;;29.16;42.43;101410.78;5059808;28;20045;-59
2022/05/19 10:59:03;;;;;;;20.33;11.98;;;;;;;29.13;40.78;101420.16;5057367;28;20112;-61
2022/05/19 11:01:39;;;;;;;18.55;10.80;;;;;;;28.99;42.27;101419.06;5051499;28;20017;-60
2022/05/19 11:04:20;;;;;;;20.38;11.25;;;;;;;28.91;42.25;101418.31;5051329;28;20385;-60
2022/05/19 11:07:18;;;;;;;17.65;10.63;;;;;;;28.83;42.86;101419.63;5053901;28;20037;-61
2022/05/19 11:10:08;;;;;;;18.58;11.15;;;;;;;28.60;42.31;101418.13;5050955;28;20036;-60
2022/05/19 11:13:01;;;;;;;18.23;11.55;;;;;;;28.45;43.21;101425.97;5051315;28;20033;-60
2022/05/19 11:15:48;;;;;;;19.02;10.73;;;;;;;28.22;43.56;101432.19;5051366;28;20029;-60
2022/05/19 11:18:26;;;;;;;17.63;11.70;;;;;;;27.99;42.85;101422.16;5051315;28;20025;-61
2022/05/19 11:21:20;;;;;;;19.20;10.80;;;;;;;27.90;44.26;101416.09;5051152;28;20037;-60
2022/05/19 11:24:24;;;;;;;19.85;11.00;;;;;;;27.76;43.86;101397.06;5050181;28;20035;-59
2022/05/19 11:26:55;;;;;;;20.92;10.85;;;;;;;27.47;43.62;101405.72;5050503;28;20049;-60
2022/05/19 11:29:35;;;;;;;18.83;11.10;;;;;;;27.27;44.59;101416.66;5050450;28;20032;-61
2022/05/19 11:32:12;;;;;;;20.33;11.13;;;;;;;27.00;44.13;101419.94;5049279;28;20142;-60
2022/05/19 11:34:47;;;;;;;16.80;10.55;;;;;;;26.71;44.35;101427.63;5050607;28;20037;-61
2022/05/19 11:37:26;;;;;;;18.55;11.15;;;;;;;26.61;45.03;101446.25;5050318;28;20037;-60
2022/05/19 11:40:15;;;;;;;20.67;11.40;;;;;;;26.49;45.83;101443.81;5050562;28;20093;-61